sensor_id;sensor_type;location;lat;lon;timestamp;P1;durP1;ratioP1;P2;durP2;ratioP2
72882;SDS011;61017;37.812;-122.286;2022-10-31T00:01:31;18.88;;;12.73;;
72882;SDS011;61017;37.812;-122.286;2022-10-31T00:05:12;17.30;;;11.95;;
72882;SDS011;61017;37.812;-122.286;2022-10-31T00:07:02;16.50;;;12.27;;
72882;SDS011;61017;37.812;-122.286;2022-10-31T00:08:54;16.83;;;12.23;;
72882;SDS011;61017;37.812;-122.286;2022-10-31T00:10:46;16.17;;;11.73;;
72882;SDS011;61017;37.812;-122.286;2022-10-31T00:12:36;17.48;;;12.68;;
72882;SDS011;61017;37.812;-122.286;2022-10-31T00:14:26;15.55;;;12.38;;
72882;SDS011;61017;37.812;-122.286;2022-10-31T00:16:17;16.77;;;13.07;;
72882;SDS011;61017;37.812;-122.286;2022-10-31T00:18:10;15.50;;;12.53;;
72882;SDS011;61017;37.812;-122.286;2022-10-31T00:20:00;16.92;;;13.02;;
72882;SDS011;61017;37.812;-122.286;2022-10-31T00:21:51;15.80;;;12.38;;
72882;SDS011;61017;37.812;-122.286;2022-10-31T00:23:41;15.88;;;12.50;;
72882;SDS011;61017;37.812;-122.286;2022-10-31T00:25:35;16.77;;;12.32;;
72882;SDS011;61017;37.812;-122.286;2022-10-31T00:27:27;16.02;;;12.80;;
72882;SDS011;61017;37.812;-122.286;2022-10-31T00:29:18;17.13;;;13.00;;
72882;SDS011;61017;37.812;-122.286;2022-10-31T00:31:09;14.73;;;11.90;;
72882;SDS011;61017;37.812;-122.286;2022-10-31T00:33:00;16.35;;;12.82;;
72882;SDS011;61017;37.812;-122.286;2022-10-31T00:34:52;19.13;;;13.23;;
72882;SDS011;61017;37.812;-122.286;2022-10-31T00:36:43;15.40;;;12.38;;
72882;SDS011;61017;37.812;-122.286;2022-10-31T00:38:33;19.00;;;13.63;;
72882;SDS011;61017;37.812;-122.286;2022-10-31T00:40:23;18.00;;;13.23;;
72882;SDS011;61017;37.812;-122.286;2022-10-31T00:42:15;16.92;;;12.35;;
72882;SDS011;61017;37.812;-122.286;2022-10-31T00:44:05;17.20;;;12.80;;
72882;SDS011;61017;37.812;-122.286;2022-10-31T00:45:56;18.55;;;12.98;;
72882;SDS011;61017;37.812;-122.286;2022-10-31T00:47:46;17.05;;;13.02;;
72882;SDS011;61017;37.812;-122.286;2022-10-31T00:49:36;17.70;;;12.60;;
72882;SDS011;61017;37.812;-122.286;2022-10-31T00:51:27;18.95;;;13.05;;
72882;SDS011;61017;37.812;-122.286;2022-10-31T00:53:18;19.35;;;13.27;;
72882;SDS011;61017;37.812;-122.286;2022-10-31T00:55:08;19.05;;;12.90;;
72882;SDS011;61017;37.812;-122.286;2022-10-31T00:56:58;17.30;;;13.02;;
72882;SDS011;61017;37.812;-122.286;2022-10-31T00:58:49;16.92;;;12.43;;
72882;SDS011;61017;37.812;-122.286;2022-10-31T01:00:39;22.35;;;12.70;;
72882;SDS011;61017;37.812;-122.286;2022-10-31T01:02:28;21.48;;;13.27;;
72882;SDS011;61017;37.812;-122.286;2022-10-31T01:04:19;17.98;;;13.05;;
72882;SDS011;61017;37.812;-122.286;2022-10-31T01:06:13;17.73;;;12.75;;
72882;SDS011;61017;37.812;-122.286;2022-10-31T01:08:03;21.92;;;13.18;;
72882;SDS011;61017;37.812;-122.286;2022-10-31T01:09:53;19.42;;;13.20;;
72882;SDS011;61017;37.812;-122.286;2022-10-31T01:11:43;17.73;;;12.63;;
72882;SDS011;61017;37.812;-122.286;2022-10-31T01:13:33;20.95;;;13.35;;
72882;SDS011;61017;37.812;-122.286;2022-10-31T01:15:23;25.13;;;12.95;;
72882;SDS011;61017;37.812;-122.286;2022-10-31T01:17:13;17.83;;;12.60;;
72882;SDS011;61017;37.812;-122.286;2022-10-31T01:19:04;23.88;;;13.85;;
72882;SDS011;61017;37.812;-122.286;2022-10-31T01:21:01;24.48;;;13.50;;
72882;SDS011;61017;37.812;-122.286;2022-10-31T01:22:53;21.27;;;13.55;;
72882;SDS011;61017;37.812;-122.286;2022-10-31T01:24:43;21.70;;;14.35;;
72882;SDS011;61017;37.812;-122.286;2022-10-31T01:26:34;21.40;;;13.82;;
72882;SDS011;61017;37.812;-122.286;2022-10-31T01:28:24;22.55;;;14.63;;
72882;SDS011;61017;37.812;-122.286;2022-10-31T01:30:14;20.30;;;13.38;;
72882;SDS011;61017;37.812;-122.286;2022-10-31T01:32:04;22.13;;;13.23;;
72882;SDS011;61017;37.812;-122.286;2022-10-31T01:33:55;20.10;;;13.63;;
72882;SDS011;61017;37.812;-122.286;2022-10-31T01:35:46;21.70;;;13.55;;
72882;SDS011;61017;37.812;-122.286;2022-10-31T01:37:36;19.25;;;13.82;;
72882;SDS011;61017;37.812;-122.286;2022-10-31T01:39:25;22.35;;;13.85;;
72882;SDS011;61017;37.812;-122.286;2022-10-31T01:41:17;23.58;;;14.07;;
72882;SDS011;61017;37.812;-122.286;2022-10-31T01:43:11;24.33;;;14.43;;
72882;SDS011;61017;37.812;-122.286;2022-10-31T01:45:04;22.75;;;13.40;;
72882;SDS011;61017;37.812;-122.286;2022-10-31T01:46:56;23.45;;;13.32;;
72882;SDS011;61017;37.812;-122.286;2022-10-31T01:49:24;40.50;;;14.20;;
72882;SDS011;61017;37.812;-122.286;2022-10-31T01:51:23;22.67;;;13.45;;
72882;SDS011;61017;37.812;-122.286;2022-10-31T01:53:17;21.60;;;13.30;;
72882;SDS011;61017;37.812;-122.286;2022-10-31T01:55:29;22.45;;;13.73;;
72882;SDS011;61017;37.812;-122.286;2022-10-31T01:57:27;21.75;;;13.60;;
72882;SDS011;61017;37.812;-122.286;2022-10-31T01:59:20;19.40;;;13.75;;
72882;SDS011;61017;37.812;-122.286;2022-10-31T02:01:13;21.17;;;13.77;;
72882;SDS011;61017;37.812;-122.286;2022-10-31T02:03:05;21.35;;;13.68;;
72882;SDS011;61017;37.812;-122.286;2022-10-31T02:04:55;20.38;;;13.48;;
72882;SDS011;61017;37.812;-122.286;2022-10-31T02:06:47;20.63;;;13.38;;
72882;SDS011;61017;37.812;-122.286;2022-10-31T02:08:50;22.65;;;13.27;;
72882;SDS011;61017;37.812;-122.286;2022-10-31T02:10:44;25.13;;;13.57;;
72882;SDS011;61017;37.812;-122.286;2022-10-31T02:12:35;20.45;;;14.10;;
72882;SDS011;61017;37.812;-122.286;2022-10-31T02:14:28;21.60;;;14.15;;
72882;SDS011;61017;37.812;-122.286;2022-10-31T02:16:20;24.33;;;14.82;;
72882;SDS011;61017;37.812;-122.286;2022-10-31T02:18:10;21.27;;;14.05;;
72882;SDS011;61017;37.812;-122.286;2022-10-31T02:20:20;23.30;;;14.95;;
72882;SDS011;61017;37.812;-122.286;2022-10-31T02:22:25;20.52;;;13.93;;
72882;SDS011;61017;37.812;-122.286;2022-10-31T02:31:00;23.02;;;15.10;;
72882;SDS011;61017;37.812;-122.286;2022-10-31T02:33:23;24.23;;;15.82;;
72882;SDS011;61017;37.812;-122.286;2022-10-31T02:48:18;37.58;;;14.82;;
72882;SDS011;61017;37.812;-122.286;2022-10-31T02:50:15;29.27;;;14.57;;
72882;SDS011;61017;37.812;-122.286;2022-10-31T02:52:29;32.45;;;15.20;;
72882;SDS011;61017;37.812;-122.286;2022-10-31T02:54:24;30.30;;;14.95;;
72882;SDS011;61017;37.812;-122.286;2022-10-31T02:56:17;32.55;;;14.80;;
72882;SDS011;61017;37.812;-122.286;2022-10-31T02:58:10;39.08;;;15.30;;
72882;SDS011;61017;37.812;-122.286;2022-10-31T03:00:04;41.05;;;15.07;;
72882;SDS011;61017;37.812;-122.286;2022-10-31T03:02:00;46.33;;;14.45;;
72882;SDS011;61017;37.812;-122.286;2022-10-31T03:11:01;25.40;;;14.27;;
72882;SDS011;61017;37.812;-122.286;2022-10-31T03:15:11;24.27;;;12.98;;
72882;SDS011;61017;37.812;-122.286;2022-10-31T03:17:36;24.15;;;13.70;;
72882;SDS011;61017;37.812;-122.286;2022-10-31T03:19:30;25.20;;;13.65;;
72882;SDS011;61017;37.812;-122.286;2022-10-31T03:21:36;23.73;;;13.43;;
72882;SDS011;61017;37.812;-122.286;2022-10-31T03:23:33;21.08;;;13.63;;
72882;SDS011;61017;37.812;-122.286;2022-10-31T03:25:27;22.70;;;13.18;;
72882;SDS011;61017;37.812;-122.286;2022-10-31T03:27:18;23.52;;;13.68;;
72882;SDS011;61017;37.812;-122.286;2022-10-31T03:29:15;24.90;;;13.85;;
72882;SDS011;61017;37.812;-122.286;2022-10-31T03:31:07;21.65;;;13.10;;
72882;SDS011;61017;37.812;-122.286;2022-10-31T03:33:06;22.42;;;13.27;;
72882;SDS011;61017;37.812;-122.286;2022-10-31T03:35:00;22.67;;;13.65;;
72882;SDS011;61017;37.812;-122.286;2022-10-31T03:36:57;23.48;;;13.55;;
72882;SDS011;61017;37.812;-122.286;2022-10-31T03:38:50;22.52;;;12.73;;
72882;SDS011;61017;37.812;-122.286;2022-10-31T03:40:42;21.98;;;12.77;;
72882;SDS011;61017;37.812;-122.286;2022-10-31T03:44:27;20.75;;;12.70;;
72882;SDS011;61017;37.812;-122.286;2022-10-31T03:48:11;22.52;;;12.35;;
72882;SDS011;61017;37.812;-122.286;2022-10-31T03:50:07;20.77;;;12.43;;
72882;SDS011;61017;37.812;-122.286;2022-10-31T03:55:05;20.08;;;12.23;;
72882;SDS011;61017;37.812;-122.286;2022-10-31T03:57:04;23.17;;;12.25;;
72882;SDS011;61017;37.812;-122.286;2022-10-31T04:01:20;17.42;;;11.45;;
72882;SDS011;61017;37.812;-122.286;2022-10-31T04:03:22;19.80;;;12.60;;
72882;SDS011;61017;37.812;-122.286;2022-10-31T04:05:30;19.42;;;11.45;;
72882;SDS011;61017;37.812;-122.286;2022-10-31T04:07:21;17.67;;;11.93;;
72882;SDS011;61017;37.812;-122.286;2022-10-31T04:09:19;19.20;;;12.20;;
72882;SDS011;61017;37.812;-122.286;2022-10-31T04:11:10;18.13;;;11.32;;
72882;SDS011;61017;37.812;-122.286;2022-10-31T04:13:12;18.10;;;11.65;;
72882;SDS011;61017;37.812;-122.286;2022-10-31T04:15:05;18.38;;;11.05;;
72882;SDS011;61017;37.812;-122.286;2022-10-31T04:16:58;18.23;;;11.60;;
72882;SDS011;61017;37.812;-122.286;2022-10-31T04:18:50;19.48;;;11.45;;
72882;SDS011;61017;37.812;-122.286;2022-10-31T04:20:41;18.17;;;11.35;;
72882;SDS011;61017;37.812;-122.286;2022-10-31T04:22:36;21.17;;;11.27;;
72882;SDS011;61017;37.812;-122.286;2022-10-31T04:24:26;21.95;;;11.32;;
72882;SDS011;61017;37.812;-122.286;2022-10-31T04:26:16;16.83;;;10.13;;
72882;SDS011;61017;37.812;-122.286;2022-10-31T04:28:06;16.15;;;10.77;;
72882;SDS011;61017;37.812;-122.286;2022-10-31T04:29:56;20.67;;;10.18;;
72882;SDS011;61017;37.812;-122.286;2022-10-31T04:31:46;17.88;;;10.45;;
72882;SDS011;61017;37.812;-122.286;2022-10-31T04:33:37;16.20;;;10.25;;
72882;SDS011;61017;37.812;-122.286;2022-10-31T04:35:27;17.65;;;10.57;;
72882;SDS011;61017;37.812;-122.286;2022-10-31T04:37:17;18.45;;;10.10;;
72882;SDS011;61017;37.812;-122.286;2022-10-31T04:39:07;17.55;;;10.07;;
72882;SDS011;61017;37.812;-122.286;2022-10-31T04:40:58;18.52;;;10.35;;
72882;SDS011;61017;37.812;-122.286;2022-10-31T04:42:51;17.75;;;10.38;;
72882;SDS011;61017;37.812;-122.286;2022-10-31T04:44:41;16.52;;;9.95;;
72882;SDS011;61017;37.812;-122.286;2022-10-31T04:46:32;19.17;;;9.85;;
72882;SDS011;61017;37.812;-122.286;2022-10-31T04:50:22;17.92;;;10.02;;
72882;SDS011;61017;37.812;-122.286;2022-10-31T04:52:16;18.27;;;9.73;;
72882;SDS011;61017;37.812;-122.286;2022-10-31T04:54:08;17.15;;;9.40;;
72882;SDS011;61017;37.812;-122.286;2022-10-31T04:55:58;16.48;;;9.55;;
72882;SDS011;61017;37.812;-122.286;2022-10-31T04:57:48;21.15;;;9.18;;
72882;SDS011;61017;37.812;-122.286;2022-10-31T04:59:39;22.48;;;9.32;;
72882;SDS011;61017;37.812;-122.286;2022-10-31T05:01:29;16.13;;;9.50;;
72882;SDS011;61017;37.812;-122.286;2022-10-31T05:03:22;18.00;;;8.95;;
72882;SDS011;61017;37.812;-122.286;2022-10-31T05:05:21;17.10;;;8.73;;
72882;SDS011;61017;37.812;-122.286;2022-10-31T05:07:16;17.80;;;8.70;;
72882;SDS011;61017;37.812;-122.286;2022-10-31T05:09:06;16.75;;;8.70;;
72882;SDS011;61017;37.812;-122.286;2022-10-31T05:11:03;15.95;;;8.55;;
72882;SDS011;61017;37.812;-122.286;2022-10-31T05:14:47;18.58;;;9.10;;
72882;SDS011;61017;37.812;-122.286;2022-10-31T05:16:39;15.57;;;8.15;;
72882;SDS011;61017;37.812;-122.286;2022-10-31T05:18:35;14.82;;;8.80;;
72882;SDS011;61017;37.812;-122.286;2022-10-31T05:20:32;14.98;;;8.55;;
72882;SDS011;61017;37.812;-122.286;2022-10-31T05:22:36;14.27;;;8.27;;
72882;SDS011;61017;37.812;-122.286;2022-10-31T05:24:44;15.77;;;8.43;;
72882;SDS011;61017;37.812;-122.286;2022-10-31T05:26:37;19.95;;;8.85;;
72882;SDS011;61017;37.812;-122.286;2022-10-31T05:28:28;13.82;;;7.63;;
72882;SDS011;61017;37.812;-122.286;2022-10-31T05:30:22;14.32;;;8.10;;
72882;SDS011;61017;37.812;-122.286;2022-10-31T05:32:17;16.65;;;8.13;;
72882;SDS011;61017;37.812;-122.286;2022-10-31T05:34:16;16.60;;;8.25;;
72882;SDS011;61017;37.812;-122.286;2022-10-31T05:36:07;16.90;;;7.93;;
72882;SDS011;61017;37.812;-122.286;2022-10-31T05:37:59;19.95;;;8.30;;
72882;SDS011;61017;37.812;-122.286;2022-10-31T05:39:53;13.88;;;7.88;;
72882;SDS011;61017;37.812;-122.286;2022-10-31T05:41:45;14.45;;;7.93;;
72882;SDS011;61017;37.812;-122.286;2022-10-31T05:43:38;14.23;;;7.88;;
72882;SDS011;61017;37.812;-122.286;2022-10-31T05:45:28;14.65;;;7.85;;
72882;SDS011;61017;37.812;-122.286;2022-10-31T05:47:21;13.93;;;7.60;;
72882;SDS011;61017;37.812;-122.286;2022-10-31T05:49:15;14.35;;;7.28;;
72882;SDS011;61017;37.812;-122.286;2022-10-31T05:51:09;16.30;;;7.82;;
72882;SDS011;61017;37.812;-122.286;2022-10-31T05:53:04;19.00;;;7.40;;
72882;SDS011;61017;37.812;-122.286;2022-10-31T05:54:59;15.85;;;7.28;;
72882;SDS011;61017;37.812;-122.286;2022-10-31T05:57:05;14.70;;;7.40;;
72882;SDS011;61017;37.812;-122.286;2022-10-31T05:58:58;15.02;;;7.57;;
72882;SDS011;61017;37.812;-122.286;2022-10-31T06:00:51;14.13;;;7.55;;
72882;SDS011;61017;37.812;-122.286;2022-10-31T06:02:41;13.13;;;6.72;;
72882;SDS011;61017;37.812;-122.286;2022-10-31T06:04:35;16.10;;;7.05;;
72882;SDS011;61017;37.812;-122.286;2022-10-31T06:06:26;14.00;;;6.88;;
72882;SDS011;61017;37.812;-122.286;2022-10-31T06:08:18;13.95;;;6.90;;
72882;SDS011;61017;37.812;-122.286;2022-10-31T06:10:10;13.85;;;7.22;;
72882;SDS011;61017;37.812;-122.286;2022-10-31T06:12:06;13.45;;;7.18;;
72882;SDS011;61017;37.812;-122.286;2022-10-31T06:14:22;20.02;;;6.65;;
72882;SDS011;61017;37.812;-122.286;2022-10-31T06:16:14;13.65;;;6.65;;
72882;SDS011;61017;37.812;-122.286;2022-10-31T06:18:14;17.60;;;7.15;;
72882;SDS011;61017;37.812;-122.286;2022-10-31T06:20:07;13.88;;;7.32;;
72882;SDS011;61017;37.812;-122.286;2022-10-31T06:22:01;14.98;;;7.13;;
72882;SDS011;61017;37.812;-122.286;2022-10-31T06:23:54;19.17;;;7.68;;
72882;SDS011;61017;37.812;-122.286;2022-10-31T06:25:48;20.67;;;8.38;;
72882;SDS011;61017;37.812;-122.286;2022-10-31T06:27:39;20.40;;;7.95;;
72882;SDS011;61017;37.812;-122.286;2022-10-31T06:29:51;24.00;;;9.30;;
72882;SDS011;61017;37.812;-122.286;2022-10-31T06:32:03;16.95;;;8.60;;
72882;SDS011;61017;37.812;-122.286;2022-10-31T06:33:58;20.30;;;9.00;;
72882;SDS011;61017;37.812;-122.286;2022-10-31T06:35:55;18.45;;;8.95;;
72882;SDS011;61017;37.812;-122.286;2022-10-31T06:37:53;21.08;;;8.90;;
72882;SDS011;61017;37.812;-122.286;2022-10-31T06:39:59;18.30;;;8.70;;
72882;SDS011;61017;37.812;-122.286;2022-10-31T06:41:56;19.05;;;8.77;;
72882;SDS011;61017;37.812;-122.286;2022-10-31T06:44:01;21.60;;;9.30;;
72882;SDS011;61017;37.812;-122.286;2022-10-31T06:45:54;21.67;;;9.27;;
72882;SDS011;61017;37.812;-122.286;2022-10-31T06:47:55;20.17;;;9.73;;
72882;SDS011;61017;37.812;-122.286;2022-10-31T06:49:46;21.08;;;9.43;;
72882;SDS011;61017;37.812;-122.286;2022-10-31T06:51:37;21.77;;;10.15;;
72882;SDS011;61017;37.812;-122.286;2022-10-31T06:53:28;22.42;;;9.43;;
72882;SDS011;61017;37.812;-122.286;2022-10-31T06:55:20;22.55;;;9.43;;
72882;SDS011;61017;37.812;-122.286;2022-10-31T06:57:20;28.48;;;9.88;;
72882;SDS011;61017;37.812;-122.286;2022-10-31T06:59:10;22.20;;;9.43;;
72882;SDS011;61017;37.812;-122.286;2022-10-31T07:01:09;22.77;;;9.07;;
72882;SDS011;61017;37.812;-122.286;2022-10-31T07:03:03;23.17;;;9.65;;
72882;SDS011;61017;37.812;-122.286;2022-10-31T07:04:56;25.08;;;9.82;;
72882;SDS011;61017;37.812;-122.286;2022-10-31T07:06:46;28.98;;;9.98;;
72882;SDS011;61017;37.812;-122.286;2022-10-31T07:08:40;27.20;;;9.82;;
72882;SDS011;61017;37.812;-122.286;2022-10-31T07:10:31;20.70;;;9.05;;
72882;SDS011;61017;37.812;-122.286;2022-10-31T07:12:25;22.80;;;9.38;;
72882;SDS011;61017;37.812;-122.286;2022-10-31T07:14:16;22.90;;;9.20;;
72882;SDS011;61017;37.812;-122.286;2022-10-31T07:16:09;22.05;;;9.25;;
72882;SDS011;61017;37.812;-122.286;2022-10-31T07:18:08;23.05;;;9.73;;
72882;SDS011;61017;37.812;-122.286;2022-10-31T07:20:05;20.63;;;8.93;;
72882;SDS011;61017;37.812;-122.286;2022-10-31T07:22:03;23.02;;;9.27;;
72882;SDS011;61017;37.812;-122.286;2022-10-31T07:23:55;25.00;;;8.55;;
72882;SDS011;61017;37.812;-122.286;2022-10-31T07:25:58;22.08;;;9.32;;
72882;SDS011;61017;37.812;-122.286;2022-10-31T07:27:50;19.05;;;8.63;;
72882;SDS011;61017;37.812;-122.286;2022-10-31T07:29:45;27.50;;;9.23;;
72882;SDS011;61017;37.812;-122.286;2022-10-31T07:31:39;19.50;;;8.95;;
72882;SDS011;61017;37.812;-122.286;2022-10-31T07:33:29;17.90;;;8.80;;
72882;SDS011;61017;37.812;-122.286;2022-10-31T07:35:24;18.77;;;8.60;;
72882;SDS011;61017;37.812;-122.286;2022-10-31T07:37:16;19.85;;;8.40;;
72882;SDS011;61017;37.812;-122.286;2022-10-31T07:39:06;22.20;;;8.32;;
72882;SDS011;61017;37.812;-122.286;2022-10-31T07:40:58;20.45;;;8.07;;
72882;SDS011;61017;37.812;-122.286;2022-10-31T07:42:49;18.33;;;8.43;;
72882;SDS011;61017;37.812;-122.286;2022-10-31T07:44:41;18.35;;;7.75;;
72882;SDS011;61017;37.812;-122.286;2022-10-31T07:46:31;20.88;;;7.85;;
72882;SDS011;61017;37.812;-122.286;2022-10-31T07:48:24;19.40;;;7.70;;
72882;SDS011;61017;37.812;-122.286;2022-10-31T07:50:16;19.20;;;8.23;;
72882;SDS011;61017;37.812;-122.286;2022-10-31T07:52:15;20.63;;;7.97;;
72882;SDS011;61017;37.812;-122.286;2022-10-31T07:54:06;19.73;;;7.85;;
72882;SDS011;61017;37.812;-122.286;2022-10-31T07:55:59;16.73;;;7.88;;
72882;SDS011;61017;37.812;-122.286;2022-10-31T07:58:00;18.23;;;8.25;;
72882;SDS011;61017;37.812;-122.286;2022-10-31T08:00:00;17.88;;;7.75;;
72882;SDS011;61017;37.812;-122.286;2022-10-31T08:01:51;18.58;;;7.95;;
72882;SDS011;61017;37.812;-122.286;2022-10-31T08:03:41;18.48;;;7.63;;
72882;SDS011;61017;37.812;-122.286;2022-10-31T08:05:34;18.52;;;7.85;;
72882;SDS011;61017;37.812;-122.286;2022-10-31T08:07:25;17.58;;;7.38;;
72882;SDS011;61017;37.812;-122.286;2022-10-31T08:09:19;18.58;;;7.20;;
72882;SDS011;61017;37.812;-122.286;2022-10-31T08:11:10;17.35;;;6.80;;
72882;SDS011;61017;37.812;-122.286;2022-10-31T08:13:04;19.80;;;7.22;;
72882;SDS011;61017;37.812;-122.286;2022-10-31T08:14:57;18.55;;;7.38;;
72882;SDS011;61017;37.812;-122.286;2022-10-31T08:16:47;15.55;;;7.03;;
72882;SDS011;61017;37.812;-122.286;2022-10-31T08:18:37;17.27;;;6.50;;
72882;SDS011;61017;37.812;-122.286;2022-10-31T08:20:29;21.38;;;7.47;;
72882;SDS011;61017;37.812;-122.286;2022-10-31T08:24:14;17.20;;;7.20;;
72882;SDS011;61017;37.812;-122.286;2022-10-31T08:26:08;16.33;;;7.05;;
72882;SDS011;61017;37.812;-122.286;2022-10-31T08:27:59;18.17;;;6.65;;
72882;SDS011;61017;37.812;-122.286;2022-10-31T08:29:49;13.73;;;6.88;;
72882;SDS011;61017;37.812;-122.286;2022-10-31T08:31:39;18.00;;;7.30;;
72882;SDS011;61017;37.812;-122.286;2022-10-31T08:33:29;16.58;;;6.55;;
72882;SDS011;61017;37.812;-122.286;2022-10-31T08:35:21;13.55;;;6.30;;
72882;SDS011;61017;37.812;-122.286;2022-10-31T08:37:11;16.42;;;6.63;;
72882;SDS011;61017;37.812;-122.286;2022-10-31T08:39:01;20.95;;;7.10;;
72882;SDS011;61017;37.812;-122.286;2022-10-31T08:40:53;16.98;;;6.80;;
72882;SDS011;61017;37.812;-122.286;2022-10-31T08:43:02;19.10;;;6.88;;
72882;SDS011;61017;37.812;-122.286;2022-10-31T08:44:53;16.08;;;6.40;;
72882;SDS011;61017;37.812;-122.286;2022-10-31T08:46:46;14.13;;;6.50;;
72882;SDS011;61017;37.812;-122.286;2022-10-31T08:48:37;15.35;;;5.95;;
72882;SDS011;61017;37.812;-122.286;2022-10-31T08:50:28;14.38;;;6.30;;
72882;SDS011;61017;37.812;-122.286;2022-10-31T08:52:21;13.32;;;6.10;;
72882;SDS011;61017;37.812;-122.286;2022-10-31T08:54:12;17.58;;;6.63;;
72882;SDS011;61017;37.812;-122.286;2022-10-31T08:56:07;15.20;;;6.55;;
72882;SDS011;61017;37.812;-122.286;2022-10-31T08:58:00;14.45;;;6.13;;
72882;SDS011;61017;37.812;-122.286;2022-10-31T08:59:51;14.65;;;6.50;;
72882;SDS011;61017;37.812;-122.286;2022-10-31T09:01:44;15.93;;;6.10;;
72882;SDS011;61017;37.812;-122.286;2022-10-31T09:03:35;15.15;;;6.05;;
72882;SDS011;61017;37.812;-122.286;2022-10-31T09:05:26;16.58;;;6.15;;
72882;SDS011;61017;37.812;-122.286;2022-10-31T09:07:19;14.00;;;5.45;;
72882;SDS011;61017;37.812;-122.286;2022-10-31T09:09:09;15.05;;;6.28;;
72882;SDS011;61017;37.812;-122.286;2022-10-31T09:11:00;16.48;;;6.53;;
72882;SDS011;61017;37.812;-122.286;2022-10-31T09:13:34;13.82;;;5.85;;
72882;SDS011;61017;37.812;-122.286;2022-10-31T09:15:06;15.32;;;5.88;;
72882;SDS011;61017;37.812;-122.286;2022-10-31T09:16:57;13.32;;;5.60;;
72882;SDS011;61017;37.812;-122.286;2022-10-31T09:18:47;12.82;;;5.70;;
72882;SDS011;61017;37.812;-122.286;2022-10-31T09:20:38;16.25;;;5.80;;
72882;SDS011;61017;37.812;-122.286;2022-10-31T09:22:29;12.85;;;5.90;;
72882;SDS011;61017;37.812;-122.286;2022-10-31T09:24:21;13.18;;;5.35;;
72882;SDS011;61017;37.812;-122.286;2022-10-31T09:26:13;14.02;;;5.45;;
72882;SDS011;61017;37.812;-122.286;2022-10-31T09:28:14;11.50;;;4.97;;
72882;SDS011;61017;37.812;-122.286;2022-10-31T09:30:11;13.73;;;5.50;;
72882;SDS011;61017;37.812;-122.286;2022-10-31T09:32:12;10.60;;;5.35;;
72882;SDS011;61017;37.812;-122.286;2022-10-31T09:34:02;12.90;;;5.47;;
72882;SDS011;61017;37.812;-122.286;2022-10-31T09:35:52;14.45;;;5.57;;
72882;SDS011;61017;37.812;-122.286;2022-10-31T09:37:44;11.00;;;5.07;;
72882;SDS011;61017;37.812;-122.286;2022-10-31T09:39:35;11.23;;;5.30;;
72882;SDS011;61017;37.812;-122.286;2022-10-31T09:41:44;12.65;;;5.70;;
72882;SDS011;61017;37.812;-122.286;2022-10-31T09:44:14;12.98;;;5.13;;
72882;SDS011;61017;37.812;-122.286;2022-10-31T09:48:46;11.40;;;5.05;;
72882;SDS011;61017;37.812;-122.286;2022-10-31T09:50:57;12.95;;;5.40;;
72882;SDS011;61017;37.812;-122.286;2022-10-31T09:53:11;12.05;;;5.45;;
72882;SDS011;61017;37.812;-122.286;2022-10-31T09:55:14;11.40;;;5.15;;
72882;SDS011;61017;37.812;-122.286;2022-10-31T09:57:19;13.68;;;5.35;;
72882;SDS011;61017;37.812;-122.286;2022-10-31T09:59:31;13.27;;;5.00;;
72882;SDS011;61017;37.812;-122.286;2022-10-31T10:03:32;11.30;;;5.13;;
72882;SDS011;61017;37.812;-122.286;2022-10-31T10:05:46;11.88;;;5.30;;
72882;SDS011;61017;37.812;-122.286;2022-10-31T10:08:40;12.98;;;5.07;;
72882;SDS011;61017;37.812;-122.286;2022-10-31T10:18:48;13.43;;;5.25;;
72882;SDS011;61017;37.812;-122.286;2022-10-31T10:25:28;10.10;;;4.45;;
72882;SDS011;61017;37.812;-122.286;2022-10-31T10:29:40;10.52;;;4.65;;
72882;SDS011;61017;37.812;-122.286;2022-10-31T10:31:46;11.23;;;4.65;;
72882;SDS011;61017;37.812;-122.286;2022-10-31T10:36:02;12.82;;;4.97;;
72882;SDS011;61017;37.812;-122.286;2022-10-31T10:40:25;9.63;;;4.43;;
72882;SDS011;61017;37.812;-122.286;2022-10-31T10:42:18;10.57;;;4.75;;
72882;SDS011;61017;37.812;-122.286;2022-10-31T10:44:10;11.38;;;4.93;;
72882;SDS011;61017;37.812;-122.286;2022-10-31T10:48:31;12.02;;;4.82;;
72882;SDS011;61017;37.812;-122.286;2022-10-31T10:59:24;12.00;;;4.57;;
72882;SDS011;61017;37.812;-122.286;2022-10-31T11:01:14;9.55;;;4.65;;
72882;SDS011;61017;37.812;-122.286;2022-10-31T11:03:05;11.90;;;5.22;;
72882;SDS011;61017;37.812;-122.286;2022-10-31T11:04:57;9.05;;;4.40;;
72882;SDS011;61017;37.812;-122.286;2022-10-31T11:08:54;11.35;;;4.10;;
72882;SDS011;61017;37.812;-122.286;2022-10-31T11:10:44;10.88;;;4.18;;
72882;SDS011;61017;37.812;-122.286;2022-10-31T11:12:34;9.55;;;4.55;;
72882;SDS011;61017;37.812;-122.286;2022-10-31T11:14:25;8.95;;;4.68;;
72882;SDS011;61017;37.812;-122.286;2022-10-31T11:18:20;9.27;;;4.60;;
72882;SDS011;61017;37.812;-122.286;2022-10-31T11:22:17;8.98;;;4.45;;
72882;SDS011;61017;37.812;-122.286;2022-10-31T11:26:01;10.35;;;4.43;;
72882;SDS011;61017;37.812;-122.286;2022-10-31T11:27:59;9.25;;;4.22;;
72882;SDS011;61017;37.812;-122.286;2022-10-31T11:29:51;9.15;;;4.15;;
72882;SDS011;61017;37.812;-122.286;2022-10-31T11:31:41;10.55;;;4.40;;
72882;SDS011;61017;37.812;-122.286;2022-10-31T11:33:34;10.35;;;4.53;;
72882;SDS011;61017;37.812;-122.286;2022-10-31T11:35:39;10.10;;;4.63;;
72882;SDS011;61017;37.812;-122.286;2022-10-31T11:37:32;10.65;;;4.93;;
72882;SDS011;61017;37.812;-122.286;2022-10-31T11:39:32;9.25;;;4.47;;
72882;SDS011;61017;37.812;-122.286;2022-10-31T11:41:30;10.48;;;4.30;;
72882;SDS011;61017;37.812;-122.286;2022-10-31T11:43:25;12.73;;;4.88;;
72882;SDS011;61017;37.812;-122.286;2022-10-31T11:47:16;10.27;;;4.57;;
72882;SDS011;61017;37.812;-122.286;2022-10-31T11:49:31;9.45;;;4.53;;
72882;SDS011;61017;37.812;-122.286;2022-10-31T11:51:30;10.55;;;4.45;;
72882;SDS011;61017;37.812;-122.286;2022-10-31T11:53:32;10.05;;;4.30;;
72882;SDS011;61017;37.812;-122.286;2022-10-31T11:55:35;9.68;;;4.70;;
72882;SDS011;61017;37.812;-122.286;2022-10-31T11:57:32;9.13;;;4.20;;
72882;SDS011;61017;37.812;-122.286;2022-10-31T11:59:32;11.98;;;4.60;;
72882;SDS011;61017;37.812;-122.286;2022-10-31T12:01:26;11.10;;;4.35;;
72882;SDS011;61017;37.812;-122.286;2022-10-31T12:05:23;11.48;;;4.57;;
72882;SDS011;61017;37.812;-122.286;2022-10-31T12:07:15;12.95;;;4.43;;
72882;SDS011;61017;37.812;-122.286;2022-10-31T12:09:25;9.38;;;4.40;;
72882;SDS011;61017;37.812;-122.286;2022-10-31T12:11:33;11.40;;;4.60;;
72882;SDS011;61017;37.812;-122.286;2022-10-31T12:16:16;10.23;;;4.32;;
72882;SDS011;61017;37.812;-122.286;2022-10-31T12:22:40;9.82;;;4.50;;
72882;SDS011;61017;37.812;-122.286;2022-10-31T12:26:58;9.85;;;4.07;;
72882;SDS011;61017;37.812;-122.286;2022-10-31T12:32:08;10.20;;;3.70;;
72882;SDS011;61017;37.812;-122.286;2022-10-31T12:49:09;10.00;;;4.10;;
72882;SDS011;61017;37.812;-122.286;2022-10-31T12:51:45;8.80;;;4.47;;
72882;SDS011;61017;37.812;-122.286;2022-10-31T12:58:35;10.73;;;4.00;;